createdAt,value
2019-01-16T00:00:11.818Z,99.79
2019-01-16T00:01:11.809Z,99.79
2019-01-16T00:02:11.795Z,99.79
2019-01-16T00:03:11.784Z,99.99
2019-01-16T00:04:11.777Z,99.99
2019-01-16T00:05:11.767Z,99.64
2019-01-16T00:06:11.763Z,99.99
2019-01-16T00:07:11.752Z,99.60
2019-01-16T00:08:11.737Z,99.79
2019-01-16T00:09:11.730Z,99.99
2019-01-16T00:10:11.724Z,99.99
2019-01-16T00:11:11.714Z,99.99
2019-01-16T00:12:11.706Z,99.99
2019-01-16T00:13:11.695Z,99.99
2019-01-16T00:14:11.682Z,99.99
2019-01-16T00:15:11.672Z,99.99
2019-01-16T00:16:11.663Z,99.99
2019-01-16T00:17:11.657Z,99.99
2019-01-16T00:18:17.008Z,99.99
2019-01-16T00:19:11.645Z,99.99
2019-01-16T00:20:11.630Z,99.99
2019-01-16T00:21:11.620Z,99.99
2019-01-16T00:22:11.605Z,99.99
2019-01-16T00:23:11.596Z,99.99
2019-01-16T00:24:11.591Z,99.99
2019-01-16T00:25:11.582Z,99.99
2019-01-16T00:26:11.568Z,99.99
2019-01-16T00:27:11.558Z,99.99
2019-01-16T00:28:11.549Z,99.99
2019-01-16T00:29:11.542Z,99.99
2019-01-16T00:30:11.535Z,99.99
2019-01-16T00:31:11.524Z,99.99
2019-01-16T00:32:11.516Z,99.99
2019-01-16T00:33:11.505Z,99.99
2019-01-16T00:34:11.495Z,99.99
2019-01-16T00:35:11.480Z,99.99
2019-01-16T00:36:11.473Z,99.99
2019-01-16T00:37:11.462Z,99.99
2019-01-16T00:38:11.458Z,99.99
2019-01-16T00:39:11.449Z,99.99
2019-01-16T00:40:11.434Z,99.99
2019-01-16T00:41:11.425Z,99.99
2019-01-16T00:42:11.421Z,99.99
2019-01-16T00:43:11.410Z,99.99
2019-01-16T00:44:11.400Z,99.99
2019-01-16T00:45:11.391Z,99.99
2019-01-16T00:46:11.377Z,99.99
2019-01-16T00:47:11.367Z,99.99
2019-01-16T00:48:11.357Z,99.99
2019-01-16T00:49:11.352Z,99.99
2019-01-16T00:50:11.344Z,99.99
2019-01-16T00:51:11.333Z,99.99
2019-01-16T00:52:11.323Z,99.99
2019-01-16T00:53:11.315Z,99.99
2019-01-16T00:54:11.300Z,99.99
2019-01-16T00:55:11.290Z,99.99
2019-01-16T00:56:11.288Z,99.99
2019-01-16T00:57:11.276Z,99.99
2019-01-16T00:58:11.261Z,99.99
2019-01-16T00:59:11.366Z,99.99
2019-01-16T01:00:11.242Z,99.99
2019-01-16T01:01:11.232Z,99.99
2019-01-16T01:02:11.227Z,99.99
2019-01-16T01:03:11.217Z,99.99
2019-01-16T01:04:11.260Z,99.99
2019-01-16T01:05:11.199Z,99.99
2019-01-16T01:06:11.185Z,99.99
2019-01-16T01:07:11.175Z,99.99
2019-01-16T01:08:11.165Z,99.99
2019-01-16T01:09:11.155Z,99.99
2019-01-16T01:10:11.150Z,99.99
2019-01-16T01:11:11.139Z,99.99
2019-01-16T01:12:11.126Z,99.99
2019-01-16T01:13:11.117Z,99.99
2019-01-16T01:14:11.111Z,99.99
2019-01-16T01:15:11.100Z,99.99
2019-01-16T01:16:11.093Z,99.99
2019-01-16T01:17:11.083Z,99.99
2019-01-16T01:18:11.070Z,99.99
2019-01-16T01:19:11.058Z,99.99
2019-01-16T01:20:11.051Z,99.99
2019-01-16T01:21:11.039Z,99.99
2019-01-16T01:22:11.035Z,99.99
2019-01-16T01:23:11.025Z,99.99
2019-01-16T01:24:11.015Z,99.99
2019-01-16T01:25:11.006Z,99.99
2019-01-16T01:26:10.994Z,99.99
2019-01-16T01:27:10.980Z,99.99
2019-01-16T01:28:10.975Z,99.99
2019-01-16T01:29:10.965Z,99.99
2019-01-16T01:30:10.954Z,99.99
2019-01-16T01:31:10.943Z,99.99
2019-01-16T01:32:10.932Z,99.99
2019-01-16T01:33:10.924Z,99.99
2019-01-16T01:34:10.919Z,99.99
2019-01-16T01:35:10.910Z,99.99
2019-01-16T01:36:10.899Z,99.99
2019-01-16T01:37:10.888Z,99.99
2019-01-16T01:38:10.875Z,99.99
2019-01-16T01:39:10.864Z,99.99
2019-01-16T01:40:10.855Z,99.99
2019-01-16T01:41:10.856Z,99.99
2019-01-16T01:42:10.840Z,99.99
2019-01-16T01:43:10.832Z,99.99
2019-01-16T01:44:10.817Z,99.99
2019-01-16T01:45:10.807Z,99.99
2019-01-16T01:46:10.801Z,99.99
2019-01-16T01:47:10.791Z,99.99
2019-01-16T01:48:10.782Z,99.99
2019-01-16T01:49:10.774Z,99.99
2019-01-16T01:50:10.759Z,99.99
2019-01-16T01:51:11.863Z,99.99
2019-01-16T01:52:10.739Z,99.99
2019-01-16T01:53:10.730Z,99.99
2019-01-16T01:54:10.725Z,99.99
2019-01-16T01:55:10.716Z,99.99
2019-01-16T01:56:10.705Z,99.99
2019-01-16T01:57:10.694Z,99.99
2019-01-16T01:58:10.681Z,99.99
2019-01-16T01:59:10.670Z,99.99
2019-01-16T02:00:11.891Z,99.99
2019-01-16T02:01:10.657Z,99.99
2019-01-16T02:02:10.643Z,99.99
2019-01-16T02:03:10.633Z,99.99
2019-01-16T02:04:10.623Z,99.99
2019-01-16T02:05:10.614Z,99.99
2019-01-16T02:06:10.609Z,99.99
2019-01-16T02:07:10.598Z,99.99
2019-01-16T02:08:10.588Z,99.99
2019-01-16T02:09:10.579Z,99.99
2019-01-16T02:10:10.565Z,99.99
2019-01-16T02:11:10.554Z,99.99
2019-01-16T02:12:10.544Z,99.99
2019-01-16T02:13:10.536Z,99.99
2019-01-16T02:14:10.534Z,99.99
2019-01-16T02:15:10.520Z,99.99
2019-01-16T02:16:10.507Z,99.99
2019-01-16T02:17:10.497Z,99.99
2019-01-16T02:18:10.492Z,99.99
2019-01-16T02:19:10.481Z,99.99
2019-01-16T02:20:10.471Z,99.99
2019-01-16T02:21:10.462Z,99.99
2019-01-16T02:22:10.453Z,99.99
2019-01-16T02:23:10.437Z,99.99
2019-01-16T02:24:10.427Z,99.99
2019-01-16T02:25:10.418Z,99.99
2019-01-16T02:26:10.413Z,99.99
2019-01-16T02:27:10.403Z,99.99
2019-01-16T02:28:10.394Z,99.99
2019-01-16T02:29:10.384Z,99.99
2019-01-16T02:30:10.373Z,99.99
2019-01-16T02:31:10.363Z,99.99
2019-01-16T02:32:10.357Z,99.99
2019-01-16T02:33:10.345Z,99.99
2019-01-16T02:34:10.332Z,99.99
2019-01-16T02:35:10.321Z,99.99
2019-01-16T02:36:10.310Z,99.99
2019-01-16T02:37:10.302Z,99.99
2019-01-16T02:38:10.297Z,99.99
2019-01-16T02:39:10.289Z,99.99
2019-01-16T02:40:10.277Z,99.99
2019-01-16T02:41:10.267Z,99.99
2019-01-16T02:42:10.266Z,99.99
2019-01-16T02:43:10.254Z,99.99
2019-01-16T02:44:10.234Z,99.99
2019-01-16T02:45:10.225Z,99.99
2019-01-16T02:46:10.220Z,99.99
2019-01-16T02:47:10.208Z,99.99
2019-01-16T02:48:10.194Z,99.99
2019-01-16T02:49:10.187Z,99.99
2019-01-16T02:50:10.179Z,99.99
2019-01-16T02:51:10.169Z,99.99
2019-01-16T02:52:10.159Z,99.99
2019-01-16T02:53:10.151Z,99.99
2019-01-16T02:54:10.138Z,99.99
2019-01-16T02:55:10.127Z,99.99
2019-01-16T02:56:10.119Z,99.99
2019-01-16T02:57:10.107Z,99.99
2019-01-16T02:58:10.102Z,99.99
2019-01-16T02:59:10.093Z,99.99
2019-01-16T03:00:10.082Z,99.99
2019-01-16T03:01:10.072Z,99.99
2019-01-16T03:02:10.058Z,99.99
2019-01-16T03:03:10.048Z,99.99
2019-01-16T03:04:10.044Z,99.99
2019-01-16T03:05:10.033Z,99.99
2019-01-16T03:06:10.022Z,99.99
2019-01-16T03:07:10.007Z,99.99
2019-01-16T03:08:09.998Z,99.99
2019-01-16T03:09:09.992Z,99.99
2019-01-16T03:10:09.984Z,99.99
2019-01-16T03:11:09.974Z,99.99
2019-01-16T03:12:09.964Z,99.99
2019-01-16T03:13:09.955Z,99.99
2019-01-16T03:14:09.941Z,99.99
2019-01-16T03:15:09.941Z,99.99
2019-01-16T03:16:09.920Z,99.99
2019-01-16T03:17:09.910Z,99.99
2019-01-16T03:18:09.905Z,99.99
2019-01-16T03:19:09.897Z,99.99
2019-01-16T03:20:09.882Z,99.99
2019-01-16T03:21:09.872Z,99.99
2019-01-16T03:22:09.869Z,99.99
2019-01-16T03:23:09.859Z,99.99
2019-01-16T03:24:09.848Z,99.99
2019-01-16T03:25:09.839Z,99.99
2019-01-16T03:26:09.823Z,99.99
2019-01-16T03:27:09.813Z,99.99
2019-01-16T03:28:09.803Z,99.99
2019-01-16T03:29:09.795Z,99.99
2019-01-16T03:30:09.791Z,99.99
2019-01-16T03:31:09.974Z,99.99
2019-01-16T03:32:09.773Z,99.99
2019-01-16T03:33:09.769Z,99.99
2019-01-16T03:34:09.744Z,99.99
2019-01-16T03:35:09.734Z,99.99
2019-01-16T03:36:09.730Z,99.99
2019-01-16T03:37:09.718Z,99.99
2019-01-16T03:38:09.705Z,99.99
2019-01-16T03:39:09.693Z,99.99
2019-01-16T03:40:09.684Z,99.99
2019-01-16T03:41:09.675Z,99.99
2019-01-16T03:42:09.672Z,99.99
2019-01-16T03:43:09.660Z,99.99
2019-01-16T03:44:09.649Z,99.99
2019-01-16T03:45:09.642Z,99.99
2019-01-16T03:46:09.629Z,99.99
2019-01-16T03:47:09.619Z,99.99
2019-01-16T03:48:09.605Z,99.99
2019-01-16T03:49:13.759Z,99.99
2019-01-16T03:50:09.669Z,99.99
2019-01-16T03:51:09.579Z,99.99
2019-01-16T03:52:09.566Z,99.99
2019-01-16T03:53:09.555Z,99.99
2019-01-16T03:54:09.550Z,99.99
2019-01-16T03:55:09.539Z,99.99
2019-01-16T03:56:09.530Z,99.99
2019-01-16T03:57:09.521Z,99.99
2019-01-16T03:58:09.506Z,99.99
2019-01-16T03:59:09.495Z,99.99
2019-01-16T04:00:09.487Z,99.99
2019-01-16T04:01:09.476Z,99.99
2019-01-16T04:02:09.470Z,99.99
2019-01-16T04:03:09.460Z,99.99
2019-01-16T04:04:09.450Z,99.99
2019-01-16T04:05:09.439Z,99.99
2019-01-16T04:06:09.424Z,99.99
2019-01-16T04:07:09.416Z,99.99
2019-01-16T04:08:09.409Z,99.99
2019-01-16T04:09:09.398Z,99.99
2019-01-16T04:10:09.421Z,99.99
2019-01-16T04:11:09.375Z,99.99
2019-01-16T04:12:09.367Z,99.99
2019-01-16T04:13:09.354Z,99.99
2019-01-16T04:14:09.352Z,99.99
2019-01-16T04:15:09.338Z,99.99
2019-01-16T04:16:09.327Z,99.99
2019-01-16T04:17:09.347Z,99.99
2019-01-16T04:18:09.303Z,99.99
2019-01-16T04:19:09.297Z,99.99
2019-01-16T04:20:09.284Z,99.99
2019-01-16T04:21:09.275Z,99.99
2019-01-16T04:22:09.268Z,99.99
2019-01-16T04:23:09.256Z,99.99
2019-01-16T04:24:09.242Z,99.99
2019-01-16T04:25:09.246Z,99.99
2019-01-16T04:26:09.227Z,99.99
2019-01-16T04:27:09.216Z,99.99
2019-01-16T04:28:09.207Z,99.99
2019-01-16T04:29:09.196Z,99.99
2019-01-16T04:30:09.182Z,99.99
2019-01-16T04:31:09.175Z,99.99
2019-01-16T04:32:09.160Z,99.99
2019-01-16T04:33:09.150Z,99.99
2019-01-16T04:34:09.146Z,99.99
2019-01-16T04:35:09.134Z,99.99
2019-01-16T04:36:09.126Z,99.99
2019-01-16T04:37:09.116Z,99.99
2019-01-16T04:38:09.101Z,99.99
2019-01-16T04:39:09.090Z,99.99
2019-01-16T04:40:09.085Z,99.99
2019-01-16T04:41:09.076Z,99.99
2019-01-16T04:42:09.062Z,99.99
2019-01-16T04:43:09.053Z,99.99
2019-01-16T04:44:10.022Z,99.99
2019-01-16T04:45:09.030Z,99.99
2019-01-16T04:46:09.025Z,99.99
2019-01-16T04:47:09.013Z,99.99
2019-01-16T04:48:09.005Z,99.99
2019-01-16T04:49:08.996Z,99.99
2019-01-16T04:50:08.981Z,99.99
2019-01-16T04:51:08.969Z,99.99
2019-01-16T04:52:08.961Z,99.99
2019-01-16T04:53:08.951Z,99.99
2019-01-16T04:54:08.946Z,99.99
2019-01-16T04:55:08.934Z,99.99
2019-01-16T04:56:08.921Z,99.99
2019-01-16T04:57:08.912Z,99.99
2019-01-16T04:58:08.907Z,99.99
2019-01-16T04:59:08.895Z,99.99
2019-01-16T05:00:08.884Z,99.99
2019-01-16T05:01:08.874Z,99.99
2019-01-16T05:02:08.860Z,99.99
2019-01-16T05:03:08.852Z,99.99
2019-01-16T05:04:08.839Z,99.99
2019-01-16T05:05:08.831Z,99.99
2019-01-16T05:06:08.830Z,99.99
2019-01-16T05:07:08.814Z,99.99
2019-01-16T05:08:08.806Z,99.99
2019-01-16T05:09:08.796Z,99.99
2019-01-16T05:10:08.781Z,99.99
2019-01-16T05:11:08.770Z,99.99
2019-01-16T05:12:08.766Z,99.99
2019-01-16T05:13:08.756Z,99.99
2019-01-16T05:14:08.742Z,99.99
2019-01-16T05:15:08.731Z,99.99
2019-01-16T05:16:08.720Z,99.99
2019-01-16T05:17:08.711Z,99.99
2019-01-16T05:18:08.706Z,99.99
2019-01-16T05:19:08.696Z,99.99
2019-01-16T05:20:08.686Z,99.69
2019-01-16T05:21:08.676Z,99.99
2019-01-16T05:22:08.662Z,99.99
2019-01-16T05:23:08.655Z,99.97
2019-01-16T05:24:08.642Z,99.78
2019-01-16T05:25:08.632Z,99.99
2019-01-16T05:26:08.627Z,99.97
2019-01-16T05:27:08.616Z,99.99
2019-01-16T05:28:08.602Z,99.97
2019-01-16T05:29:08.592Z,99.78
2019-01-16T05:30:08.587Z,99.99
2019-01-16T05:31:08.580Z,99.78
2019-01-16T05:32:08.570Z,99.99
2019-01-16T05:33:08.561Z,99.99
2019-01-16T05:34:08.548Z,99.99
2019-01-16T05:35:08.539Z,99.99
2019-01-16T05:36:08.523Z,99.30
2019-01-16T05:37:08.515Z,99.59
2019-01-16T05:38:08.511Z,99.40
2019-01-16T05:39:08.498Z,99.02
2019-01-16T05:40:08.488Z,99.69
2019-01-16T05:41:08.498Z,99.50
2019-01-16T05:42:08.471Z,99.59
2019-01-16T05:43:08.458Z,99.30
2019-01-16T05:44:08.451Z,99.99
2019-01-16T05:45:08.437Z,99.99
2019-01-16T05:46:08.424Z,99.30
2019-01-16T05:47:08.415Z,99.30
2019-01-16T05:48:08.404Z,99.26
2019-01-16T05:49:08.394Z,99.55
2019-01-16T05:50:08.406Z,99.26
2019-01-16T05:51:08.378Z,99.55
2019-01-16T05:52:08.369Z,99.26
2019-01-16T05:53:08.360Z,99.36
2019-01-16T05:54:08.344Z,99.36
2019-01-16T05:55:08.335Z,99.59
2019-01-16T05:56:08.323Z,98.97
2019-01-16T05:57:08.315Z,98.88
2019-01-16T05:58:08.309Z,98.88
2019-01-16T05:59:08.299Z,98.97
2019-01-16T06:00:08.285Z,98.50
2019-01-16T06:01:08.276Z,98.88
2019-01-16T06:02:08.270Z,98.97
2019-01-16T06:03:08.259Z,98.79
2019-01-16T06:04:08.250Z,98.60
2019-01-16T06:05:08.241Z,98.41
2019-01-16T06:06:08.228Z,98.12
2019-01-16T06:07:08.217Z,98.50
2019-01-16T06:08:08.207Z,98.22
2019-01-16T06:09:08.197Z,98.50
2019-01-16T06:10:08.193Z,98.22
2019-01-16T06:11:08.182Z,98.36
2019-01-16T06:12:08.170Z,98.12
2019-01-16T06:13:08.161Z,98.22
2019-01-16T06:14:08.147Z,97.55
2019-01-16T06:15:08.136Z,98.41
2019-01-16T06:16:08.132Z,98.41
2019-01-16T06:17:08.123Z,97.74
2019-01-16T06:18:08.108Z,97.83
2019-01-16T06:19:08.098Z,98.12
2019-01-16T06:20:08.090Z,98.12
2019-01-16T06:21:08.078Z,97.55
2019-01-16T06:22:08.073Z,97.27
2019-01-16T06:23:08.063Z,97.17
2019-01-16T06:24:08.055Z,97.27
2019-01-16T06:25:08.045Z,97.55
2019-01-16T06:26:08.030Z,97.17
2019-01-16T06:27:08.019Z,97.45
2019-01-16T06:28:08.010Z,97.17
2019-01-16T06:29:08.005Z,97.17
2019-01-16T06:30:07.995Z,97.08
2019-01-16T06:31:07.990Z,97.36
2019-01-16T06:32:07.973Z,96.69
2019-01-16T06:33:07.961Z,96.89
2019-01-16T06:34:07.956Z,96.98
2019-01-16T06:35:07.945Z,96.79
2019-01-16T06:36:07.935Z,96.41
2019-01-16T06:37:07.926Z,96.31
2019-01-16T06:38:07.974Z,96.31
2019-01-16T06:39:07.902Z,96.41
2019-01-16T06:40:07.892Z,96.31
2019-01-16T06:41:07.883Z,96.31
2019-01-16T06:42:07.880Z,96.50
2019-01-16T06:43:07.866Z,96.69
2019-01-16T06:44:07.857Z,96.50
2019-01-16T06:45:07.847Z,97.27
2019-01-16T06:46:07.832Z,96.79
2019-01-16T06:47:07.821Z,96.31
2019-01-16T06:48:07.818Z,96.60
2019-01-16T06:49:07.808Z,96.41
2019-01-16T06:50:07.794Z,96.22
2019-01-16T06:51:07.783Z,96.03
2019-01-16T06:52:07.772Z,96.31
2019-01-16T06:53:07.768Z,96.50
2019-01-16T06:54:07.757Z,96.41
2019-01-16T06:55:07.747Z,95.94
2019-01-16T06:56:07.738Z,96.31
2019-01-16T06:57:07.728Z,96.31
2019-01-16T06:58:07.716Z,95.84
2019-01-16T06:59:07.705Z,96.41
2019-01-16T07:00:07.694Z,96.41
2019-01-16T07:01:07.684Z,96.41
2019-01-16T07:02:07.680Z,96.22
2019-01-16T07:03:07.669Z,96.50
2019-01-16T07:04:07.655Z,96.22
2019-01-16T07:05:07.646Z,96.22
2019-01-16T07:06:07.643Z,96.41
2019-01-16T07:07:07.630Z,95.36
2019-01-16T07:08:07.620Z,95.84
2019-01-16T07:09:07.611Z,95.65
2019-01-16T07:10:07.597Z,95.75
2019-01-16T07:11:07.585Z,95.84
2019-01-16T07:12:07.575Z,95.36
2019-01-16T07:13:07.567Z,95.84
2019-01-16T07:14:07.561Z,95.75
2019-01-16T07:15:07.550Z,96.31
2019-01-16T07:16:07.541Z,96.12
2019-01-16T07:17:07.532Z,95.36
2019-01-16T07:18:07.518Z,95.75
2019-01-16T07:19:07.506Z,95.84
2019-01-16T07:20:09.898Z,96.12
2019-01-16T07:21:07.493Z,96.22
2019-01-16T07:22:07.478Z,95.46
2019-01-16T07:23:07.466Z,95.75
2019-01-16T07:24:07.456Z,96.41
2019-01-16T07:25:07.446Z,96.12
2019-01-16T07:26:07.441Z,96.03
2019-01-16T07:27:07.431Z,96.03
2019-01-16T07:28:07.423Z,95.75
2019-01-16T07:29:07.412Z,95.65
2019-01-16T07:30:07.399Z,95.75
2019-01-16T07:31:07.387Z,95.84
2019-01-16T07:32:07.377Z,96.41
2019-01-16T07:33:07.369Z,95.65
2019-01-16T07:34:07.363Z,95.89
2019-01-16T07:35:07.356Z,95.46
2019-01-16T07:36:07.338Z,95.46
2019-01-16T07:37:07.329Z,95.75
2019-01-16T07:38:07.324Z,95.75
2019-01-16T07:39:07.315Z,95.94
2019-01-16T07:40:07.306Z,95.94
2019-01-16T07:41:07.293Z,95.46
2019-01-16T07:42:07.280Z,95.36
2019-01-16T07:43:07.269Z,95.27
2019-01-16T07:44:07.262Z,95.36
2019-01-16T07:45:07.249Z,94.60
2019-01-16T07:46:07.243Z,94.89
2019-01-16T07:47:07.235Z,95.17
2019-01-16T07:48:07.225Z,94.79
2019-01-16T07:49:07.215Z,94.79
2019-01-16T07:50:07.200Z,94.98
2019-01-16T07:51:07.189Z,94.60
2019-01-16T07:52:07.184Z,95.36
2019-01-16T07:53:07.175Z,94.60
2019-01-16T07:54:07.169Z,94.98
2019-01-16T07:55:07.150Z,94.79
2019-01-16T07:56:07.140Z,94.70
2019-01-16T07:57:07.130Z,94.89
2019-01-16T07:58:07.125Z,94.70
2019-01-16T07:59:07.114Z,94.79
2019-01-16T08:00:07.104Z,94.70
2019-01-16T08:01:07.095Z,94.98
2019-01-16T08:02:07.080Z,94.98
2019-01-16T08:03:07.070Z,94.98
2019-01-16T08:04:07.060Z,95.08
2019-01-16T08:05:07.051Z,95.08
2019-01-16T08:06:07.047Z,94.60
2019-01-16T08:07:07.036Z,94.60
2019-01-16T08:08:07.022Z,94.98
2019-01-16T08:09:07.012Z,94.22
2019-01-16T08:10:07.007Z,94.22
2019-01-16T08:11:06.997Z,93.94
2019-01-16T08:12:06.987Z,94.22
2019-01-16T08:13:06.976Z,94.13
2019-01-16T08:14:06.963Z,94.42
2019-01-16T08:15:06.951Z,94.22
2019-01-16T08:16:06.942Z,94.22
2019-01-16T08:17:06.932Z,94.13
2019-01-16T08:18:06.926Z,94.13
2019-01-16T08:19:06.917Z,94.13
2019-01-16T08:20:06.908Z,94.03
2019-01-16T08:21:06.898Z,94.13
2019-01-16T08:22:06.883Z,94.32
2019-01-16T08:23:06.873Z,93.65
2019-01-16T08:24:06.870Z,94.03
2019-01-16T08:25:06.858Z,93.75
2019-01-16T08:26:06.844Z,93.37
2019-01-16T08:27:06.832Z,94.22
2019-01-16T08:28:06.824Z,94.22
2019-01-16T08:29:06.814Z,94.03
2019-01-16T08:30:06.807Z,93.84
2019-01-16T08:31:06.798Z,93.46
2019-01-16T08:32:06.789Z,93.46
2019-01-16T08:33:06.779Z,93.65
2019-01-16T08:34:06.766Z,93.84
2019-01-16T08:35:06.755Z,93.46
2019-01-16T08:36:06.743Z,93.84
2019-01-16T08:37:06.734Z,93.94
2019-01-16T08:38:06.728Z,94.22
2019-01-16T08:39:06.717Z,93.75
2019-01-16T08:40:06.704Z,93.55
2019-01-16T08:41:06.696Z,93.75
2019-01-16T08:42:06.692Z,93.27
2019-01-16T08:43:06.681Z,93.75
2019-01-16T08:44:13.458Z,93.37
2019-01-16T08:45:06.661Z,92.99
2019-01-16T08:46:06.646Z,93.18
2019-01-16T08:47:06.637Z,93.18
2019-01-16T08:48:06.627Z,93.37
2019-01-16T08:49:06.619Z,93.75
2019-01-16T08:50:06.613Z,93.65
2019-01-16T08:51:06.603Z,93.94
2019-01-16T08:52:06.592Z,94.22
2019-01-16T08:53:06.585Z,93.46
2019-01-16T08:57:06.544Z,93.55
2019-01-16T09:07:06.444Z,93.84
2019-01-16T09:08:06.433Z,93.37
2019-01-16T09:09:06.428Z,93.46
2019-01-16T09:10:06.420Z,93.46
2019-01-16T09:11:06.413Z,93.08
2019-01-16T09:12:06.395Z,93.46
2019-01-16T09:13:06.387Z,93.27
2019-01-16T09:14:06.383Z,93.37
2019-01-16T09:15:06.372Z,93.37
2019-01-16T09:16:06.363Z,93.37
2019-01-16T09:17:06.354Z,93.37
2019-01-16T09:18:06.341Z,93.55
2019-01-16T09:19:06.330Z,93.55
2019-01-16T09:20:06.321Z,93.46
2019-01-16T09:21:06.311Z,93.18
2019-01-16T09:22:06.308Z,93.37
2019-01-16T09:23:06.297Z,93.46
2019-01-16T09:24:06.288Z,93.37
2019-01-16T09:25:06.278Z,92.61
2019-01-16T09:26:06.265Z,92.61
2019-01-16T09:27:06.254Z,92.70
2019-01-16T09:28:06.249Z,93.27
2019-01-16T09:29:06.239Z,92.89
2019-01-16T09:30:06.231Z,93.37
2019-01-16T09:31:06.220Z,92.99
2019-01-16T09:32:06.208Z,92.80
2019-01-16T09:33:06.198Z,92.61
2019-01-16T09:34:06.194Z,92.61
2019-01-16T09:35:06.183Z,92.51
2019-01-16T09:36:06.172Z,92.61
2019-01-16T09:37:06.163Z,92.80
2019-01-16T09:38:06.151Z,92.89
2019-01-16T09:39:06.140Z,92.13
2019-01-16T09:40:06.132Z,92.80
2019-01-16T09:41:06.121Z,92.61
2019-01-16T09:42:06.117Z,93.46
2019-01-16T09:43:06.108Z,92.99
2019-01-16T09:44:06.093Z,92.61
2019-01-16T09:45:06.084Z,92.99
2019-01-16T09:46:06.080Z,92.22
2019-01-16T09:47:06.069Z,92.80
2019-01-16T09:48:06.063Z,93.18
2019-01-16T09:49:06.049Z,92.13
2019-01-16T09:50:06.036Z,92.13
2019-01-16T09:51:06.027Z,92.32
2019-01-16T09:52:06.017Z,92.22
2019-01-16T09:53:06.008Z,91.94
2019-01-16T09:54:06.005Z,92.13
2019-01-16T09:55:05.993Z,91.85
2019-01-16T09:56:05.987Z,92.13
2019-01-16T09:57:05.974Z,92.13
2019-01-16T09:58:05.960Z,91.94
2019-01-16T09:59:05.950Z,92.03
2019-01-16T10:00:05.947Z,91.94
2019-01-16T10:01:05.938Z,92.13
2019-01-16T10:02:05.924Z,91.66
2019-01-16T10:03:05.914Z,91.66
2019-01-16T10:04:05.903Z,92.03
2019-01-16T10:05:05.896Z,91.66
2019-01-16T10:06:05.898Z,91.37
2019-01-16T10:07:05.882Z,91.56
2019-01-16T10:08:05.872Z,91.66
2019-01-16T10:09:05.863Z,91.85
2019-01-16T10:10:05.848Z,91.66
2019-01-16T10:11:05.840Z,91.37
2019-01-16T10:12:05.831Z,91.47
2019-01-16T10:13:05.822Z,91.28
2019-01-16T10:14:05.817Z,91.66
2019-01-16T10:15:05.808Z,91.85
2019-01-16T10:16:05.792Z,91.75
2019-01-16T10:17:05.785Z,90.89
2019-01-16T10:18:05.781Z,91.37
2019-01-16T10:19:05.775Z,91.47
2019-01-16T10:20:05.760Z,91.66
2019-01-16T10:21:05.751Z,91.66
2019-01-16T10:22:05.738Z,91.47
2019-01-16T10:23:05.729Z,91.18
2019-01-16T10:24:05.720Z,91.47
2019-01-16T10:25:05.709Z,92.13
2019-01-16T10:26:05.706Z,91.85
2019-01-16T10:27:05.696Z,92.13
2019-01-16T10:28:05.687Z,91.75
2019-01-16T10:29:05.679Z,91.85
2019-01-16T10:30:05.664Z,92.13
2019-01-16T10:31:05.655Z,92.22
2019-01-16T10:32:05.652Z,91.28
2019-01-16T10:33:05.641Z,91.75
2019-01-16T10:34:05.627Z,92.41
2019-01-16T10:35:05.617Z,91.66
2019-01-16T10:36:05.607Z,91.28
2019-01-16T10:37:05.598Z,91.37
2019-01-16T10:38:05.593Z,91.47
2019-01-16T10:39:05.583Z,91.47
2019-01-16T10:40:05.576Z,91.66
2019-01-16T10:41:05.566Z,91.66
2019-01-16T10:42:05.553Z,91.66
2019-01-16T10:43:05.608Z,91.66
2019-01-16T10:44:05.533Z,91.08
2019-01-16T10:45:05.523Z,90.80
2019-01-16T10:46:05.520Z,91.18
2019-01-16T10:47:05.511Z,91.47
2019-01-16T10:48:05.497Z,91.08
2019-01-16T10:49:05.488Z,90.99
2019-01-16T10:50:05.482Z,91.42
2019-01-16T10:51:05.473Z,90.99
2019-01-16T10:52:05.466Z,91.03
2019-01-16T10:53:05.456Z,90.75
2019-01-16T10:54:05.443Z,90.80
2019-01-16T10:55:05.433Z,90.84
2019-01-16T10:56:05.423Z,91.32
2019-01-16T10:57:05.415Z,90.84
2019-01-16T10:58:05.410Z,90.89
2019-01-16T10:59:05.401Z,91.03
2019-01-16T11:00:05.401Z,90.75
2019-01-16T11:01:05.384Z,90.84
2019-01-16T11:02:05.370Z,90.80
2019-01-16T11:03:05.361Z,90.80
2019-01-16T11:04:05.357Z,90.61
2019-01-16T11:05:05.348Z,90.99
2019-01-16T11:06:05.334Z,90.80
2019-01-16T11:07:05.324Z,91.18
2019-01-16T11:08:05.316Z,91.75
2019-01-16T11:09:05.307Z,91.56
2019-01-16T11:10:05.303Z,91.66
2019-01-16T11:11:06.709Z,92.13
2019-01-16T11:12:05.285Z,92.03
2019-01-16T11:13:05.275Z,91.56
2019-01-16T11:14:05.263Z,91.37
2019-01-16T11:15:05.252Z,91.28
2019-01-16T11:16:05.245Z,91.18
2019-01-16T11:17:05.234Z,91.08
2019-01-16T11:18:05.231Z,90.89
2019-01-16T11:19:05.221Z,90.80
2019-01-16T11:20:05.207Z,91.08
2019-01-16T11:21:11.002Z,90.84
2019-01-16T11:22:05.195Z,90.80
2019-01-16T11:23:05.185Z,90.99
2019-01-16T11:24:05.176Z,91.03
2019-01-16T11:25:05.169Z,91.03
2019-01-16T11:26:05.154Z,91.22
2019-01-16T11:27:05.144Z,90.56
2019-01-16T11:28:05.134Z,90.66
2019-01-16T11:29:05.128Z,90.84
2019-01-16T11:30:05.124Z,90.75
2019-01-16T11:31:05.115Z,90.28
2019-01-16T11:32:05.104Z,90.94
2019-01-16T11:33:05.096Z,89.89
2019-01-16T11:34:05.083Z,89.89
2019-01-16T11:35:05.073Z,89.42
2019-01-16T11:36:05.079Z,89.89
2019-01-16T11:37:05.061Z,89.99
2019-01-16T11:38:05.048Z,89.70
2019-01-16T11:39:05.040Z,89.89
2019-01-16T11:40:05.252Z,89.89
2019-01-16T11:41:05.025Z,89.51
2019-01-16T11:42:05.022Z,89.23
2019-01-16T11:43:05.010Z,89.70
2019-01-16T11:44:04.998Z,89.70
2019-01-16T11:45:04.988Z,89.80
2019-01-16T11:46:04.985Z,90.28
2019-01-16T11:47:04.978Z,90.28
2019-01-16T11:48:04.968Z,89.80
2019-01-16T11:49:04.960Z,90.18
2019-01-16T11:50:04.946Z,89.89
2019-01-16T11:51:04.938Z,90.18
2019-01-16T11:52:04.934Z,90.28
2019-01-16T11:53:04.925Z,90.33
2019-01-16T11:54:04.915Z,90.80
2019-01-16T11:55:04.902Z,90.42
2019-01-16T11:56:04.894Z,91.18
2019-01-16T11:57:04.886Z,91.08
2019-01-16T11:58:04.882Z,91.08
2019-01-16T11:59:04.873Z,90.23
2019-01-16T12:00:04.863Z,90.33
2019-01-16T12:01:04.856Z,90.42
2019-01-16T12:02:04.842Z,91.18
2019-01-16T12:03:04.832Z,90.80
2019-01-16T12:04:04.824Z,90.89
2019-01-16T12:05:04.819Z,90.80
2019-01-16T12:06:04.811Z,90.80
2019-01-16T12:07:04.802Z,90.89
2019-01-16T12:08:04.788Z,90.80
2019-01-16T12:09:04.780Z,90.89
2019-01-16T12:10:04.775Z,91.37
2019-01-16T12:11:04.766Z,91.08
2019-01-16T12:12:04.755Z,91.28
2019-01-16T12:13:04.804Z,91.66
2019-01-16T12:14:04.733Z,91.56
2019-01-16T12:15:04.723Z,91.37
2019-01-16T12:16:04.715Z,91.33
2019-01-16T12:17:04.725Z,91.28
2019-01-16T12:18:04.703Z,91.56
2019-01-16T12:19:04.690Z,91.66
2019-01-16T12:20:04.683Z,90.80
2019-01-16T12:21:04.674Z,91.37
2019-01-16T12:22:04.660Z,91.80
2019-01-16T12:23:04.650Z,92.13
2019-01-16T12:24:04.649Z,91.94
2019-01-16T12:25:04.636Z,92.13
2019-01-16T12:26:08.310Z,91.94
2019-01-16T12:27:04.613Z,92.03
2019-01-16T12:28:04.604Z,91.94
2019-01-16T12:29:04.594Z,91.85
2019-01-16T12:30:04.590Z,91.75
2019-01-16T12:31:04.586Z,91.37
2019-01-16T12:32:04.573Z,91.56
2019-01-16T12:33:04.560Z,91.47
2019-01-16T12:34:04.547Z,92.03
2019-01-16T12:35:04.536Z,91.47
2019-01-16T12:36:04.527Z,91.47
2019-01-16T12:37:04.518Z,91.37
2019-01-16T12:38:04.516Z,91.66
2019-01-16T12:39:04.504Z,91.56
2019-01-16T12:40:04.490Z,91.75
2019-01-16T12:41:04.481Z,91.56
2019-01-16T12:42:04.476Z,91.28
2019-01-16T12:43:04.469Z,91.75
2019-01-16T12:44:04.456Z,91.47
2019-01-16T12:45:04.450Z,91.28
2019-01-16T12:46:04.437Z,91.66
2019-01-16T12:47:04.422Z,90.89
2019-01-16T12:48:04.415Z,91.37
2019-01-16T12:49:05.974Z,90.99
2019-01-16T12:50:04.451Z,91.28
2019-01-16T12:51:04.391Z,91.37
2019-01-16T12:52:04.381Z,91.28
2019-01-16T12:53:04.372Z,91.37
2019-01-16T12:54:04.366Z,91.28
2019-01-16T12:55:04.347Z,91.66
2019-01-16T12:56:04.343Z,91.47
2019-01-16T12:57:04.334Z,91.66
2019-01-16T12:58:04.321Z,91.66
2019-01-16T12:59:04.311Z,91.75
2019-01-16T13:00:04.301Z,91.08
2019-01-16T13:01:04.294Z,91.18
2019-01-16T13:02:04.288Z,90.89
2019-01-16T13:03:04.279Z,91.28
2019-01-16T13:04:04.270Z,91.08